createdAt,value
2023-01-19T00:00:23.326Z,91.76
2023-01-19T00:05:25.068Z,91.40
2023-01-19T00:10:26.710Z,91.58
2023-01-19T00:15:28.323Z,90.95
2023-01-19T00:20:32.109Z,90.96
2023-01-19T00:25:34.184Z,90.59
2023-01-19T00:30:35.961Z,90.46
2023-01-19T00:35:37.613Z,89.94
2023-01-19T00:40:39.266Z,90.24
2023-01-19T00:45:42.095Z,90.18
2023-01-19T00:50:43.748Z,90.17
2023-01-19T00:55:45.348Z,89.85
2023-01-19T01:00:47.000Z,89.74
2023-01-19T01:05:49.123Z,89.22
2023-01-19T01:10:51.879Z,89.81
2023-01-19T01:15:55.214Z,89.95
2023-01-19T01:21:04.803Z,89.90
2023-01-19T01:26:06.476Z,90.42
2023-01-19T01:31:08.096Z,90.56
2023-01-19T01:36:11.956Z,90.14
2023-01-19T01:41:13.721Z,89.56
2023-01-19T01:46:18.413Z,89.47
2023-01-19T01:51:28.835Z,90.27
2023-01-19T01:56:35.983Z,89.93
2023-01-19T02:01:56.177Z,89.74
2023-01-19T02:07:17.055Z,89.65
2023-01-19T02:12:37.291Z,89.51
2023-01-19T02:17:38.915Z,90.20
2023-01-19T02:22:47.148Z,90.93
2023-01-19T02:27:51.600Z,91.66
2023-01-19T02:32:53.344Z,92.50
2023-01-19T02:37:55.060Z,92.90
2023-01-19T02:43:01.210Z,93.52
2023-01-19T02:48:04.699Z,93.80
2023-01-19T02:53:32.408Z,93.45
2023-01-19T02:58:42.892Z,92.90
2023-01-19T03:04:22.832Z,93.24
2023-01-19T03:09:30.326Z,94.48
2023-01-19T03:14:33.655Z,94.18
2023-01-19T03:19:39.316Z,93.95
2023-01-19T03:24:44.537Z,92.63
2023-01-19T03:29:52.987Z,89.98
2023-01-19T03:34:56.992Z,90.58
2023-01-19T03:39:58.750Z,90.90
2023-01-19T03:45:01.760Z,92.58
2023-01-19T03:50:07.708Z,92.49
2023-01-19T03:55:10.413Z,92.90
2023-01-19T04:00:12.802Z,94.06
2023-01-19T04:05:14.551Z,93.29
2023-01-19T04:10:19.836Z,91.87
2023-01-19T04:15:21.434Z,91.96
2023-01-19T04:20:23.083Z,93.71
2023-01-19T04:25:24.699Z,94.20
2023-01-19T04:30:27.489Z,94.11
2023-01-19T04:35:29.102Z,93.07
2023-01-19T04:40:30.907Z,91.90
2023-01-19T04:45:32.691Z,92.00
2023-01-19T04:50:34.374Z,92.24
2023-01-19T04:55:38.107Z,92.18
2023-01-19T05:00:39.912Z,88.79
2023-01-19T05:05:41.512Z,88.30
2023-01-19T05:10:43.103Z,89.73
2023-01-19T05:15:44.833Z,89.84
2023-01-19T05:20:46.904Z,89.67
2023-01-19T05:25:48.520Z,87.89
2023-01-19T05:30:50.315Z,88.60
2023-01-19T05:35:53.345Z,85.86
2023-01-19T05:40:58.579Z,79.32
2023-01-19T05:46:00.212Z,76.24
2023-01-19T05:51:02.026Z,75.86
2023-01-19T05:56:06.298Z,74.81
2023-01-19T06:01:10.192Z,74.34
2023-01-19T06:06:12.560Z,75.01
2023-01-19T06:11:14.154Z,75.26
2023-01-19T06:16:15.789Z,75.87
2023-01-19T06:21:17.505Z,76.05
2023-01-19T06:26:19.113Z,75.19
2023-01-19T06:31:20.955Z,75.91
2023-01-19T06:36:22.563Z,75.50
2023-01-19T06:41:24.239Z,76.04
2023-01-19T06:46:26.247Z,76.08
2023-01-19T06:51:28.029Z,76.50
2023-01-19T06:56:29.631Z,78.37
2023-01-19T07:01:31.813Z,80.18
2023-01-19T07:06:33.490Z,81.10
2023-01-19T07:11:35.089Z,81.15
2023-01-19T07:16:36.734Z,81.88
2023-01-19T07:21:38.367Z,81.28
2023-01-19T07:26:39.977Z,83.37
2023-01-19T07:31:41.641Z,83.38
2023-01-19T07:36:44.140Z,83.23
2023-01-19T07:41:48.286Z,84.81
2023-01-19T07:46:51.231Z,85.95
2023-01-19T07:51:52.984Z,86.29
2023-01-19T07:56:55.311Z,86.52
2023-01-19T08:01:59.586Z,85.28
2023-01-19T08:07:01.489Z,85.46
2023-01-19T08:12:03.958Z,84.27
2023-01-19T08:17:05.562Z,83.75
2023-01-19T08:22:07.217Z,84.25
2023-01-19T08:27:10.021Z,84.65
2023-01-19T08:32:11.860Z,84.23
2023-01-19T08:37:13.484Z,83.40
2023-01-19T08:42:15.086Z,81.60
2023-01-19T08:47:17.369Z,80.25
2023-01-19T08:52:19.032Z,78.45
2023-01-19T08:57:20.650Z,77.61
2023-01-19T09:02:22.345Z,76.91
2023-01-19T09:07:24.069Z,76.77
2023-01-19T09:12:25.668Z,76.13
2023-01-19T09:17:27.349Z,75.75
2023-01-19T09:22:28.990Z,75.55
2023-01-19T09:27:30.879Z,75.74
2023-01-19T09:32:32.621Z,75.86
2023-01-19T09:37:34.223Z,75.25
2023-01-19T09:42:44.188Z,75.38
2023-01-19T09:47:48.653Z,74.88
2023-01-19T09:52:57.425Z,74.74
2023-01-19T09:57:59.496Z,74.81
2023-01-19T10:03:15.408Z,73.25
2023-01-19T10:08:29.237Z,71.82
2023-01-19T10:13:42.108Z,69.97
2023-01-19T10:18:51.903Z,69.52
2023-01-19T10:24:29.335Z,67.41
2023-01-19T10:29:39.140Z,66.72
2023-01-19T10:34:41.725Z,65.12
2023-01-19T10:39:52.121Z,64.10
2023-01-19T10:44:53.850Z,62.78
2023-01-19T10:49:55.798Z,63.21
2023-01-19T10:55:00.071Z,63.25
2023-01-19T11:00:02.117Z,59.12
2023-01-19T11:05:28.015Z,59.99
2023-01-19T11:10:30.846Z,59.99
2023-01-19T11:15:42.539Z,59.48
2023-01-19T11:20:55.512Z,58.57
2023-01-19T11:26:00.579Z,59.12
2023-01-19T11:31:20.373Z,59.00
2023-01-19T11:36:27.807Z,61.17
2023-01-19T11:41:33.419Z,60.97
2023-01-19T11:46:41.120Z,60.72
2023-01-19T11:52:07.235Z,62.41
2023-01-19T11:57:15.183Z,61.49
2023-01-19T12:02:32.054Z,60.90
2023-01-19T12:07:36.167Z,60.05
2023-01-19T12:12:40.523Z,58.28
2023-01-19T12:17:49.229Z,60.40
2023-01-19T12:22:59.874Z,59.47
2023-01-19T12:28:02.724Z,59.14
2023-01-19T12:33:32.743Z,59.32
2023-01-19T12:38:54.513Z,58.63
2023-01-19T12:44:16.079Z,59.62
2023-01-19T12:49:38.900Z,60.62
2023-01-19T12:54:49.615Z,61.57
2023-01-19T13:00:01.697Z,61.42
2023-01-19T13:05:32.831Z,62.56
2023-01-19T13:10:53.889Z,61.83
2023-01-19T13:15:59.909Z,62.22
2023-01-19T13:21:05.479Z,62.86
2023-01-19T13:26:11.552Z,60.96
2023-01-19T13:31:14.049Z,62.59
2023-01-19T13:36:27.917Z,62.66
2023-01-19T13:41:35.068Z,64.00
2023-01-19T13:46:38.700Z,62.83
2023-01-19T13:51:40.401Z,62.86
2023-01-19T13:56:47.337Z,63.01
2023-01-19T14:01:51.235Z,63.69
2023-01-19T14:06:55.771Z,64.64
2023-01-19T14:12:09.430Z,64.73
2023-01-19T14:17:29.457Z,65.56
2023-01-19T14:22:45.614Z,66.87
2023-01-19T14:27:47.213Z,67.04
2023-01-19T14:32:48.894Z,67.71
2023-01-19T14:37:52.010Z,67.63
2023-01-19T14:43:03.323Z,67.96
2023-01-19T14:48:13.142Z,68.22
2023-01-19T14:53:16.375Z,69.15
2023-01-19T14:58:24.442Z,69.55
2023-01-19T15:03:43.619Z,70.40
2023-01-19T15:08:48.854Z,70.71
2023-01-19T15:13:51.141Z,71.47
2023-01-19T15:18:52.845Z,72.08
2023-01-19T15:23:55.779Z,72.99
2023-01-19T15:28:57.532Z,73.07
2023-01-19T15:33:59.172Z,73.78
2023-01-19T15:39:00.759Z,75.80
2023-01-19T15:44:02.428Z,78.10
2023-01-19T15:49:05.783Z,76.34
2023-01-19T15:54:13.775Z,76.44
2023-01-19T15:59:15.418Z,75.08
2023-01-19T16:04:18.128Z,75.77
2023-01-19T16:09:20.200Z,76.50
2023-01-19T16:14:21.814Z,76.57
2023-01-19T16:19:23.503Z,76.34
2023-01-19T16:24:25.791Z,76.08
2023-01-19T16:29:27.407Z,77.30
2023-01-19T16:34:29.107Z,77.48
2023-01-19T16:39:30.745Z,77.44
2023-01-19T16:44:32.380Z,78.06
2023-01-19T16:49:34.189Z,77.52
2023-01-19T16:54:36.963Z,76.98
2023-01-19T16:59:39.905Z,76.76
2023-01-19T17:04:41.531Z,75.70
2023-01-19T17:09:43.122Z,75.70
2023-01-19T17:14:47.321Z,75.88
2023-01-19T17:19:48.994Z,75.99
2023-01-19T17:24:50.596Z,76.21
2023-01-19T17:29:52.221Z,76.14
2023-01-19T17:34:53.831Z,75.95
2023-01-19T17:39:55.934Z,76.80
2023-01-19T17:44:57.607Z,76.48
2023-01-19T17:50:00.426Z,76.51
2023-01-19T17:55:02.280Z,76.10
2023-01-19T18:00:07.916Z,76.35
2023-01-19T18:05:14.745Z,76.76
2023-01-19T18:10:17.065Z,76.68
2023-01-19T18:15:18.855Z,76.63
2023-01-19T18:20:20.461Z,76.56
2023-01-19T18:25:22.105Z,76.55
2023-01-19T18:30:24.034Z,76.55
2023-01-19T18:35:26.058Z,76.34
2023-01-19T18:40:27.693Z,76.44
2023-01-19T18:45:29.291Z,76.70
2023-01-19T18:50:30.953Z,76.85
2023-01-19T18:55:32.554Z,77.08
2023-01-19T19:00:34.246Z,76.90
2023-01-19T19:05:36.879Z,76.80
2023-01-19T19:10:40.799Z,76.67
2023-01-19T19:15:44.379Z,77.45
2023-01-19T19:20:46.069Z,77.69
2023-01-19T19:25:47.766Z,77.21
2023-01-19T19:30:52.594Z,76.95
2023-01-19T19:35:58.224Z,77.28
2023-01-19T19:41:05.130Z,77.02
2023-01-19T19:46:08.801Z,77.09
2023-01-19T19:51:18.978Z,77.38
2023-01-19T19:56:23.285Z,77.38
2023-01-19T20:01:32.658Z,77.65
2023-01-19T20:06:38.925Z,77.65
2023-01-19T20:11:41.895Z,78.07
2023-01-19T20:16:43.965Z,78.18
2023-01-19T20:21:45.631Z,78.50
2023-01-19T20:26:50.430Z,78.35
2023-01-19T20:31:54.899Z,78.29
2023-01-19T20:36:56.645Z,78.82
2023-01-19T20:41:58.254Z,79.31
2023-01-19T20:46:59.913Z,79.36
2023-01-19T20:52:02.167Z,79.50
2023-01-19T20:57:03.790Z,79.21
2023-01-19T21:02:08.068Z,78.91
2023-01-19T21:07:10.037Z,79.95
2023-01-19T21:12:11.865Z,79.73
2023-01-19T21:17:13.476Z,80.23
2023-01-19T21:22:15.107Z,80.13
2023-01-19T21:27:16.747Z,80.05
2023-01-19T21:32:18.518Z,80.18
2023-01-19T21:37:20.216Z,80.00
2023-01-19T21:42:21.833Z,80.06
2023-01-19T21:47:23.457Z,80.84
2023-01-19T21:52:25.063Z,80.93
2023-01-19T21:57:26.808Z,80.58
2023-01-19T22:02:38.331Z,80.86
2023-01-19T22:07:40.648Z,81.43
2023-01-19T22:12:42.287Z,82.04
2023-01-19T22:17:43.892Z,82.58
2023-01-19T22:22:45.480Z,82.59
2023-01-19T22:27:47.066Z,82.88
2023-01-19T22:32:48.748Z,82.96
2023-01-19T22:37:50.364Z,83.26
2023-01-19T22:42:51.952Z,83.58
2023-01-19T22:47:53.560Z,83.98
2023-01-19T22:52:55.842Z,84.49
2023-01-19T22:57:57.423Z,84.69
2023-01-19T23:02:59.051Z,84.88
2023-01-19T23:08:00.702Z,85.30
2023-01-19T23:13:02.309Z,85.25
2023-01-19T23:18:03.949Z,85.46
2023-01-19T23:23:05.772Z,85.69
2023-01-19T23:28:07.866Z,85.77
2023-01-19T23:33:09.454Z,86.88
2023-01-19T23:38:11.042Z,87.44
2023-01-19T23:43:12.730Z,87.95
2023-01-19T23:48:14.361Z,88.16
2023-01-19T23:53:15.957Z,88.59
2023-01-19T23:58:17.567Z,89.27
